Terminal Aerodrome Forecast
Issued by NWS Norman, OK

Current Version | Previous Version | Text Only | Print | Product List | Glossary Off
Versions: 1 2 3 4 5 6 7 8 9 10 11 12 13

000
FTUS44 KOUN 301123
TAFOKC
TAF
KOKC 301123Z 3012/0112 31011KT P6SM FEW150
     FM301700 31015G21KT P6SM SKC
     FM302300 23006KT P6SM SKC=

USA.gov is the U.S. government's official web portal to all federal, state and local government web resources and services.